sensor_id;sensor_type;location;lat;lon;timestamp;temperature;humidity
23445;DHT22;11895;48.738;9.320;2023-04-03T00:01:21;5.60;99.90
23445;DHT22;11895;48.738;9.320;2023-04-03T00:08:44;5.30;99.90
23445;DHT22;11895;48.738;9.320;2023-04-03T01:14:55;5.20;99.90
23445;DHT22;11895;48.738;9.320;2023-04-03T01:38:58;5.20;99.90
23445;DHT22;11895;48.738;9.320;2023-04-03T01:41:28;5.20;99.90
23445;DHT22;11895;48.738;9.320;2023-04-03T01:58:53;5.20;99.90
23445;DHT22;11895;48.738;9.320;2023-04-03T02:01:20;5.50;99.90
23445;DHT22;11895;48.738;9.320;2023-04-03T02:03:47;5.00;99.90
23445;DHT22;11895;48.738;9.320;2023-04-03T02:06:15;5.00;99.90
23445;DHT22;11895;48.738;9.320;2023-04-03T02:08:42;5.80;99.90
23445;DHT22;11895;48.738;9.320;2023-04-03T02:11:09;5.50;99.90
23445;DHT22;11895;48.738;9.320;2023-04-03T02:16:09;5.30;99.90
23445;DHT22;11895;48.738;9.320;2023-04-03T02:18:38;5.20;99.90
23445;DHT22;11895;48.738;9.320;2023-04-03T02:21:05;5.10;99.90
23445;DHT22;11895;48.738;9.320;2023-04-03T02:26:09;5.40;99.90
23445;DHT22;11895;48.738;9.320;2023-04-03T02:31:08;5.10;99.90
23445;DHT22;11895;48.738;9.320;2023-04-03T02:33:39;5.00;99.90
23445;DHT22;11895;48.738;9.320;2023-04-03T02:38:40;5.30;99.90
23445;DHT22;11895;48.738;9.320;2023-04-03T02:43:39;5.30;99.90
23445;DHT22;11895;48.738;9.320;2023-04-03T02:46:07;5.50;99.90
23445;DHT22;11895;48.738;9.320;2023-04-03T02:48:35;5.70;99.90
23445;DHT22;11895;48.738;9.320;2023-04-03T02:51:03;5.60;99.90
23445;DHT22;11895;48.738;9.320;2023-04-03T02:58:30;5.90;99.90
23445;DHT22;11895;48.738;9.320;2023-04-03T03:16:01;5.40;99.90
23445;DHT22;11895;48.738;9.320;2023-04-03T03:18:29;5.30;99.90
23445;DHT22;11895;48.738;9.320;2023-04-03T03:20:58;5.50;99.90
23445;DHT22;11895;48.738;9.320;2023-04-03T03:48:27;5.40;99.90
23445;DHT22;11895;48.738;9.320;2023-04-03T04:13:39;5.50;99.90
23445;DHT22;11895;48.738;9.320;2023-04-03T04:18:37;5.50;99.90
23445;DHT22;11895;48.738;9.320;2023-04-03T04:21:04;5.50;99.90
23445;DHT22;11895;48.738;9.320;2023-04-03T04:26:00;5.30;99.90
23445;DHT22;11895;48.738;9.320;2023-04-03T04:31:01;5.50;99.90
23445;DHT22;11895;48.738;9.320;2023-04-03T04:33:29;5.20;99.90
23445;DHT22;11895;48.738;9.320;2023-04-03T04:35:59;5.60;99.90
23445;DHT22;11895;48.738;9.320;2023-04-03T04:38:26;5.30;99.90
23445;DHT22;11895;48.738;9.320;2023-04-03T04:43:22;5.30;99.90
23445;DHT22;11895;48.738;9.320;2023-04-03T04:48:45;5.40;99.90
23445;DHT22;11895;48.738;9.320;2023-04-03T04:51:13;5.60;99.90
23445;DHT22;11895;48.738;9.320;2023-04-03T04:53:41;5.50;99.90
23445;DHT22;11895;48.738;9.320;2023-04-03T05:03:53;5.20;99.90
23445;DHT22;11895;48.738;9.320;2023-04-03T05:06:22;5.50;99.90
23445;DHT22;11895;48.738;9.320;2023-04-03T05:08:50;5.90;99.90
23445;DHT22;11895;48.738;9.320;2023-04-03T05:11:17;6.00;99.90
23445;DHT22;11895;48.738;9.320;2023-04-03T05:13:49;5.40;99.90
23445;DHT22;11895;48.738;9.320;2023-04-03T05:16:16;5.20;99.90
23445;DHT22;11895;48.738;9.320;2023-04-03T05:18:44;5.60;99.90
23445;DHT22;11895;48.738;9.320;2023-04-03T05:21:16;6.30;99.90
23445;DHT22;11895;48.738;9.320;2023-04-03T05:23:46;5.40;99.90
23445;DHT22;11895;48.738;9.320;2023-04-03T05:26:19;5.50;99.90
23445;DHT22;11895;48.738;9.320;2023-04-03T05:28:49;5.60;99.90
23445;DHT22;11895;48.738;9.320;2023-04-03T05:31:18;5.80;99.90
23445;DHT22;11895;48.738;9.320;2023-04-03T05:33:46;5.60;99.90
23445;DHT22;11895;48.738;9.320;2023-04-03T05:36:17;5.70;99.90
23445;DHT22;11895;48.738;9.320;2023-04-03T05:38:49;5.80;99.90
23445;DHT22;11895;48.738;9.320;2023-04-03T05:41:19;5.60;99.90
23445;DHT22;11895;48.738;9.320;2023-04-03T05:43:48;5.50;99.90
23445;DHT22;11895;48.738;9.320;2023-04-03T05:46:18;5.60;99.90
23445;DHT22;11895;48.738;9.320;2023-04-03T05:48:52;5.40;99.90
23445;DHT22;11895;48.738;9.320;2023-04-03T05:51:24;5.50;99.90
23445;DHT22;11895;48.738;9.320;2023-04-03T05:54:22;5.50;99.90
23445;DHT22;11895;48.738;9.320;2023-04-03T05:59:26;5.40;99.90
23445;DHT22;11895;48.738;9.320;2023-04-03T06:01:56;5.40;99.90
23445;DHT22;11895;48.738;9.320;2023-04-03T06:04:24;5.30;99.90
23445;DHT22;11895;48.738;9.320;2023-04-03T06:06:55;5.60;99.90
23445;DHT22;11895;48.738;9.320;2023-04-03T06:09:26;5.70;99.90
23445;DHT22;11895;48.738;9.320;2023-04-03T06:11:56;5.50;99.90
23445;DHT22;11895;48.738;9.320;2023-04-03T06:14:26;5.60;99.90
23445;DHT22;11895;48.738;9.320;2023-04-03T06:19:22;5.70;99.90
23445;DHT22;11895;48.738;9.320;2023-04-03T06:21:54;6.20;99.90
23445;DHT22;11895;48.738;9.320;2023-04-03T06:24:23;6.10;99.90
23445;DHT22;11895;48.738;9.320;2023-04-03T06:26:52;6.10;99.90
23445;DHT22;11895;48.738;9.320;2023-04-03T06:29:20;6.00;99.90
23445;DHT22;11895;48.738;9.320;2023-04-03T06:31:48;6.10;99.90
23445;DHT22;11895;48.738;9.320;2023-04-03T06:34:17;6.20;99.90
23445;DHT22;11895;48.738;9.320;2023-04-03T06:36:45;6.30;99.90
23445;DHT22;11895;48.738;9.320;2023-04-03T06:41:48;6.40;99.90
23445;DHT22;11895;48.738;9.320;2023-04-03T06:44:25;6.60;99.90
23445;DHT22;11895;48.738;9.320;2023-04-03T06:46:52;6.50;99.90
23445;DHT22;11895;48.738;9.320;2023-04-03T06:49:21;6.40;99.90
23445;DHT22;11895;48.738;9.320;2023-04-03T06:51:48;6.80;99.90
23445;DHT22;11895;48.738;9.320;2023-04-03T07:01:41;6.90;99.90
23445;DHT22;11895;48.738;9.320;2023-04-03T07:04:09;6.90;99.90
23445;DHT22;11895;48.738;9.320;2023-04-03T07:06:36;6.70;99.90
23445;DHT22;11895;48.738;9.320;2023-04-03T07:09:06;7.10;99.90
23445;DHT22;11895;48.738;9.320;2023-04-03T07:14:02;7.10;99.90
23445;DHT22;11895;48.738;9.320;2023-04-03T07:16:30;7.20;99.90
23445;DHT22;11895;48.738;9.320;2023-04-03T07:21:25;7.30;99.90
23445;DHT22;11895;48.738;9.320;2023-04-03T07:23:53;7.50;99.90
23445;DHT22;11895;48.738;9.320;2023-04-03T07:26:22;7.70;99.90
23445;DHT22;11895;48.738;9.320;2023-04-03T07:28:49;7.80;99.90
23445;DHT22;11895;48.738;9.320;2023-04-03T07:33:45;7.90;99.90
23445;DHT22;11895;48.738;9.320;2023-04-03T07:36:16;8.30;99.90
23445;DHT22;11895;48.738;9.320;2023-04-03T07:38:46;7.90;99.90
23445;DHT22;11895;48.738;9.320;2023-04-03T07:41:16;7.70;99.90
23445;DHT22;11895;48.738;9.320;2023-04-03T07:43:45;7.90;99.90
23445;DHT22;11895;48.738;9.320;2023-04-03T07:46:13;8.00;99.90
23445;DHT22;11895;48.738;9.320;2023-04-03T07:48:41;8.00;99.90
23445;DHT22;11895;48.738;9.320;2023-04-03T07:51:09;8.00;99.90
23445;DHT22;11895;48.738;9.320;2023-04-03T07:53:37;8.20;99.90
23445;DHT22;11895;48.738;9.320;2023-04-03T07:56:04;8.70;99.90
23445;DHT22;11895;48.738;9.320;2023-04-03T07:58:32;8.30;99.90
23445;DHT22;11895;48.738;9.320;2023-04-03T08:41:39;9.60;99.90
23445;DHT22;11895;48.738;9.320;2023-04-03T08:44:26;9.80;99.90
